createdAt,value
2018-09-18T00:01:02.662Z,51.10
2018-09-18T00:03:30.787Z,51.10
2018-09-18T00:05:58.873Z,51.10
2018-09-18T00:08:26.938Z,51.00
2018-09-18T00:10:55.430Z,51.00
2018-09-18T00:13:23.522Z,51.10
2018-09-18T00:15:51.586Z,51.10
2018-09-18T00:18:19.679Z,51.20
2018-09-18T00:20:47.743Z,51.10
2018-09-18T00:23:15.807Z,51.10
2018-09-18T00:25:44.127Z,51.10
2018-09-18T00:28:12.550Z,51.10
2018-09-18T00:30:40.579Z,51.10
2018-09-18T00:33:08.667Z,51.00
2018-09-18T00:35:36.738Z,51.00
2018-09-18T00:38:04.802Z,50.80
2018-09-18T00:40:32.874Z,50.90
2018-09-18T00:43:00.943Z,50.80
2018-09-18T00:45:29.043Z,50.80
2018-09-18T00:47:57.098Z,50.80
2018-09-18T00:50:25.174Z,50.90
2018-09-18T00:52:53.245Z,51.00
2018-09-18T00:55:21.318Z,50.90
2018-09-18T00:57:49.690Z,50.90
2018-09-18T01:00:17.766Z,50.80
2018-09-18T01:02:45.847Z,50.80
2018-09-18T01:05:14.238Z,50.90
2018-09-18T01:07:42.299Z,50.80
2018-09-18T01:10:10.663Z,50.60
2018-09-18T01:12:38.750Z,51.30
2018-09-18T01:15:06.847Z,50.60
2018-09-18T01:17:34.931Z,50.50
2018-09-18T01:20:03.006Z,50.40
2018-09-18T01:22:31.070Z,50.10
2018-09-18T01:24:59.170Z,49.90
2018-09-18T01:27:27.236Z,49.80
2018-09-18T01:29:55.558Z,49.50
2018-09-18T01:32:23.607Z,49.40
2018-09-18T01:34:51.662Z,50.00
2018-09-18T01:37:19.719Z,49.20
2018-09-18T01:39:47.799Z,49.20
2018-09-18T01:42:15.876Z,49.00
2018-09-18T01:44:43.955Z,48.90
2018-09-18T01:47:12.003Z,48.80
2018-09-18T01:49:40.372Z,48.80
2018-09-18T01:52:08.742Z,48.50
2018-09-18T01:54:36.882Z,48.60
2018-09-18T01:57:05.203Z,48.50
2018-09-18T01:59:33.270Z,48.20
2018-09-18T02:02:01.421Z,48.30
2018-09-18T02:04:29.470Z,48.30
2018-09-18T02:06:57.539Z,48.10
2018-09-18T02:09:25.591Z,48.30
2018-09-18T02:11:53.647Z,48.10
2018-09-18T02:14:21.694Z,48.00
2018-09-18T02:16:49.778Z,48.00
2018-09-18T02:19:17.839Z,48.00
2018-09-18T02:21:45.914Z,47.40
2018-09-18T02:24:13.967Z,47.30
2018-09-18T02:26:42.432Z,47.70
2018-09-18T02:29:10.478Z,47.50
2018-09-18T02:31:38.588Z,47.50
2018-09-18T02:34:06.776Z,47.10
2018-09-18T02:36:34.826Z,47.20
2018-09-18T02:39:04.322Z,46.70
2018-09-18T02:41:32.383Z,46.80
2018-09-18T02:44:00.443Z,46.70
2018-09-18T02:46:28.514Z,46.60
2018-09-18T02:48:56.579Z,46.60
2018-09-18T02:51:24.643Z,46.60
2018-09-18T02:53:52.687Z,47.30
2018-09-18T02:56:20.792Z,46.70
2018-09-18T02:58:48.876Z,46.40
2018-09-18T03:01:16.939Z,47.40
2018-09-18T03:03:45.232Z,46.40
2018-09-18T03:06:13.290Z,46.20
2018-09-18T03:08:41.363Z,46.40
2018-09-18T03:11:09.424Z,46.10
2018-09-18T03:13:37.472Z,46.10
2018-09-18T03:16:05.527Z,46.20
2018-09-18T03:18:33.575Z,46.40
2018-09-18T03:21:01.696Z,46.20
2018-09-18T03:23:29.682Z,46.10
2018-09-18T03:25:57.747Z,46.10
2018-09-18T03:28:25.797Z,46.00
2018-09-18T03:30:53.874Z,46.00
2018-09-18T03:33:21.941Z,46.10
2018-09-18T03:35:50.008Z,47.00
2018-09-18T03:38:18.075Z,46.10
2018-09-18T03:40:46.171Z,46.10
2018-09-18T03:43:14.223Z,45.90
2018-09-18T03:45:42.286Z,45.90
2018-09-18T03:48:10.342Z,45.90
2018-09-18T03:50:38.410Z,46.10
2018-09-18T03:53:06.471Z,45.80
2018-09-18T03:55:34.530Z,45.80
2018-09-18T03:58:02.615Z,45.80
2018-09-18T04:00:30.671Z,45.90
2018-09-18T04:02:59.035Z,46.00
2018-09-18T04:05:27.028Z,45.90
2018-09-18T04:07:55.119Z,46.10
2018-09-18T04:10:23.191Z,45.70
2018-09-18T04:12:51.259Z,46.10
2018-09-18T04:15:19.317Z,46.10
2018-09-18T04:17:47.619Z,45.80
2018-09-18T04:20:15.672Z,45.80
2018-09-18T04:22:44.015Z,45.90
2018-09-18T04:25:12.088Z,45.60
2018-09-18T04:27:40.508Z,45.70
2018-09-18T04:30:08.591Z,45.60
2018-09-18T04:32:36.662Z,45.50
2018-09-18T04:35:04.730Z,45.50
2018-09-18T04:37:32.792Z,45.60
2018-09-18T04:40:00.839Z,46.00
2018-09-18T04:42:28.906Z,45.60
2018-09-18T04:44:56.950Z,45.70
2018-09-18T04:47:25.011Z,45.60
2018-09-18T04:49:53.067Z,45.70
2018-09-18T04:52:21.126Z,46.10
2018-09-18T04:54:49.185Z,46.80
2018-09-18T04:57:17.245Z,47.10
2018-09-18T04:59:45.295Z,46.50
2018-09-18T05:02:13.358Z,47.80
2018-09-18T05:04:41.400Z,47.00
2018-09-18T05:07:09.454Z,47.30
2018-09-18T05:09:37.503Z,47.20
2018-09-18T05:12:05.563Z,47.40
2018-09-18T05:14:33.615Z,47.20
2018-09-18T05:17:01.815Z,47.30
2018-09-18T05:19:29.862Z,47.40
2018-09-18T05:21:57.923Z,47.50
2018-09-18T05:24:25.973Z,47.40
2018-09-18T05:26:54.027Z,47.50
2018-09-18T05:29:22.083Z,47.50
2018-09-18T05:31:50.158Z,48.40
2018-09-18T05:34:18.224Z,48.10
2018-09-18T05:36:46.538Z,48.00
2018-09-18T05:39:14.602Z,48.50
2018-09-18T05:41:42.645Z,48.80
2018-09-18T05:44:10.695Z,48.50
2018-09-18T05:46:38.747Z,48.20
2018-09-18T05:49:07.042Z,48.50
2018-09-18T05:51:35.407Z,48.50
2018-09-18T05:54:03.477Z,48.50
2018-09-18T05:56:31.542Z,48.60
2018-09-18T05:58:59.886Z,48.60
2018-09-18T06:01:27.943Z,48.70
2018-09-18T06:03:56.010Z,48.70
2018-09-18T06:06:24.070Z,48.80
2018-09-18T06:08:52.138Z,48.80
2018-09-18T06:11:20.199Z,48.90
2018-09-18T06:13:48.258Z,48.90
2018-09-18T06:16:16.331Z,48.90
2018-09-18T06:18:44.431Z,48.80
2018-09-18T06:21:12.442Z,49.10
2018-09-18T06:23:40.507Z,48.90
2018-09-18T06:26:08.579Z,49.00
2018-09-18T06:28:36.631Z,48.90
2018-09-18T06:31:04.696Z,48.90
2018-09-18T06:33:32.794Z,49.00
2018-09-18T06:36:00.863Z,49.00
2018-09-18T06:38:29.220Z,49.10
2018-09-18T06:40:57.270Z,49.00
2018-09-18T06:43:25.339Z,49.10
2018-09-18T06:45:53.402Z,49.20
2018-09-18T06:48:21.475Z,49.20
2018-09-18T06:50:49.550Z,49.20
2018-09-18T06:53:17.619Z,49.20
2018-09-18T06:55:45.678Z,49.20
2018-09-18T06:58:13.742Z,49.20
2018-09-18T07:00:41.811Z,49.20
2018-09-18T07:03:09.875Z,49.20
2018-09-18T07:05:38.247Z,49.20
2018-09-18T07:08:06.258Z,49.80
2018-09-18T07:10:34.346Z,49.20
2018-09-18T07:13:02.410Z,49.30
2018-09-18T07:15:30.467Z,50.00
2018-09-18T07:17:58.711Z,49.40
2018-09-18T07:20:26.710Z,49.30
2018-09-18T07:22:54.766Z,49.40
2018-09-18T07:25:22.830Z,49.40
2018-09-18T07:27:50.887Z,49.40
2018-09-18T07:30:18.963Z,49.40
2018-09-18T07:32:47.012Z,49.40
2018-09-18T07:35:15.074Z,49.40
2018-09-18T07:37:43.602Z,49.40
2018-09-18T07:40:11.670Z,49.40
2018-09-18T07:42:39.727Z,49.40
2018-09-18T07:45:07.794Z,49.40
2018-09-18T07:47:35.855Z,49.50
2018-09-18T07:50:03.923Z,49.50
2018-09-18T07:52:31.981Z,49.50
2018-09-18T07:55:00.043Z,49.50
2018-09-18T07:57:28.111Z,49.50
2018-09-18T07:59:56.166Z,49.40
2018-09-18T08:02:24.255Z,49.40
2018-09-18T08:04:52.355Z,49.40
2018-09-18T08:07:20.415Z,49.40
2018-09-18T08:09:48.478Z,50.00
2018-09-18T08:12:16.534Z,49.40
2018-09-18T08:14:44.597Z,49.40
2018-09-18T08:17:12.717Z,49.50
2018-09-18T08:19:40.880Z,49.60
2018-09-18T08:22:08.886Z,49.60
2018-09-18T08:24:37.111Z,49.60
2018-09-18T08:27:05.323Z,49.70
2018-09-18T08:29:33.619Z,49.60
2018-09-18T08:32:01.679Z,49.60
2018-09-18T08:34:29.744Z,49.60
2018-09-18T08:36:57.795Z,49.50
2018-09-18T08:39:25.906Z,49.60
2018-09-18T08:41:53.936Z,49.60
2018-09-18T08:44:22.024Z,49.50
2018-09-18T08:46:50.060Z,49.60
2018-09-18T08:49:18.146Z,50.30
2018-09-18T08:51:46.240Z,49.60
2018-09-18T08:54:14.202Z,49.70
2018-09-18T08:56:42.251Z,49.70
2018-09-18T08:59:10.342Z,49.70
2018-09-18T09:01:38.366Z,49.70
2018-09-18T09:04:06.481Z,49.80
2018-09-18T09:06:34.869Z,49.70
2018-09-18T09:09:02.977Z,49.80
2018-09-18T09:11:31.039Z,49.60
2018-09-18T09:13:59.198Z,49.70
2018-09-18T09:16:27.251Z,49.60
2018-09-18T09:18:55.324Z,49.60
2018-09-18T09:21:23.428Z,49.60
2018-09-18T09:23:51.431Z,49.60
2018-09-18T09:26:19.565Z,49.60
2018-09-18T09:28:47.555Z,49.60
2018-09-18T09:31:16.459Z,50.10
2018-09-18T09:33:44.539Z,49.70
2018-09-18T09:36:12.591Z,49.70
2018-09-18T09:38:40.696Z,49.70
2018-09-18T09:41:08.727Z,49.60
2018-09-18T09:43:36.831Z,49.60
2018-09-18T09:46:05.175Z,49.70
2018-09-18T09:48:33.751Z,49.70
2018-09-18T09:51:02.565Z,49.70
2018-09-18T09:53:30.559Z,49.80
2018-09-18T09:55:58.631Z,49.70
2018-09-18T09:58:26.704Z,49.70
2018-09-18T10:01:00.186Z,49.80
2018-09-18T10:03:28.239Z,49.80
2018-09-18T10:05:56.326Z,49.80
2018-09-18T10:08:24.663Z,49.90
2018-09-18T10:10:52.902Z,49.90
2018-09-18T10:13:20.792Z,49.80
2018-09-18T10:15:48.931Z,49.80
2018-09-18T10:18:17.079Z,49.90
2018-09-18T10:20:45.062Z,49.90
2018-09-18T10:23:13.135Z,49.90
2018-09-18T10:25:41.215Z,49.90
2018-09-18T10:28:09.268Z,49.90
2018-09-18T10:30:37.342Z,49.80
2018-09-18T10:33:05.409Z,49.90
2018-09-18T10:35:33.491Z,49.80
2018-09-18T10:38:01.546Z,49.80
2018-09-18T10:40:29.614Z,49.80
2018-09-18T10:42:57.719Z,49.80
2018-09-18T10:45:25.734Z,49.90
2018-09-18T10:47:53.808Z,49.90
2018-09-18T10:50:21.862Z,49.90
2018-09-18T10:52:49.911Z,49.90
2018-09-18T10:55:18.033Z,49.90
2018-09-18T10:57:46.067Z,49.90
2018-09-18T11:00:14.127Z,49.90
2018-09-18T11:02:42.275Z,49.90
2018-09-18T11:05:10.336Z,49.90
2018-09-18T11:07:38.536Z,49.90
2018-09-18T11:10:06.711Z,50.00
2018-09-18T11:12:35.015Z,49.90
2018-09-18T11:15:03.523Z,49.90
2018-09-18T11:17:31.512Z,50.00
2018-09-18T11:19:59.645Z,50.00
2018-09-18T11:22:27.870Z,49.60
2018-09-18T11:24:55.744Z,49.10
2018-09-18T11:27:23.786Z,48.80
2018-09-18T11:29:51.857Z,48.50
2018-09-18T11:32:19.949Z,48.60
2018-09-18T11:34:48.003Z,48.90
2018-09-18T11:37:16.299Z,49.00
2018-09-18T11:39:44.342Z,54.40
2018-09-18T11:42:12.512Z,50.80
2018-09-18T11:44:40.575Z,49.30
2018-09-18T11:47:08.872Z,48.30
2018-09-18T11:49:36.926Z,48.30
2018-09-18T11:52:04.986Z,47.90
2018-09-18T11:54:33.050Z,47.80
2018-09-18T11:57:01.124Z,47.30
2018-09-18T11:59:29.178Z,46.90
2018-09-18T12:01:57.234Z,47.00
2018-09-18T12:04:25.311Z,47.00
2018-09-18T12:06:53.378Z,47.00
2018-09-18T12:09:21.438Z,46.80
2018-09-18T12:11:49.506Z,46.60
2018-09-18T12:14:17.566Z,46.50
2018-09-18T12:16:45.656Z,46.20
2018-09-18T12:19:13.730Z,46.30
2018-09-18T12:21:42.151Z,47.10
2018-09-18T12:24:10.206Z,45.30
2018-09-18T12:26:38.270Z,44.20
2018-09-18T12:29:06.354Z,44.40
2018-09-18T12:31:34.443Z,44.70
2018-09-18T12:34:02.499Z,44.70
2018-09-18T12:36:30.563Z,44.80
2018-09-18T12:38:58.614Z,44.60
2018-09-18T12:41:26.767Z,44.80
2018-09-18T12:43:54.731Z,44.80
2018-09-18T12:46:22.866Z,44.60
2018-09-18T12:48:50.921Z,44.80
2018-09-18T12:51:18.984Z,44.70
2018-09-18T12:53:47.096Z,44.60
2018-09-18T12:56:15.137Z,44.60
2018-09-18T12:58:43.179Z,44.40
2018-09-18T13:01:11.215Z,44.90
2018-09-18T13:03:39.276Z,44.50
2018-09-18T13:06:07.414Z,44.20
2018-09-18T13:08:35.407Z,44.20
2018-09-18T13:11:03.776Z,44.40
2018-09-18T13:13:31.881Z,44.10
2018-09-18T13:15:59.943Z,44.10
2018-09-18T13:18:28.291Z,44.10
2018-09-18T13:20:56.347Z,44.20
2018-09-18T13:23:24.407Z,44.20
2018-09-18T13:25:52.466Z,44.30
2018-09-18T13:28:20.534Z,44.50
2018-09-18T13:30:48.590Z,44.90
2018-09-18T13:33:16.656Z,45.20
2018-09-18T13:35:44.723Z,45.00
2018-09-18T13:38:12.815Z,45.50
2018-09-18T13:40:40.893Z,45.70
2018-09-18T13:43:08.934Z,46.20
2018-09-18T13:45:37.008Z,46.20
2018-09-18T13:48:05.095Z,46.40
2018-09-18T13:50:33.313Z,45.90
2018-09-18T13:53:01.367Z,46.00
2018-09-18T13:55:29.489Z,45.30
2018-09-18T13:57:57.530Z,45.10
2018-09-18T14:00:25.607Z,45.20
2018-09-18T14:02:53.667Z,44.80
2018-09-18T14:05:21.836Z,44.90
2018-09-18T14:07:49.911Z,44.80
2018-09-18T14:10:17.971Z,44.90
2018-09-18T14:12:46.043Z,44.70
2018-09-18T14:15:14.179Z,44.70
2018-09-18T14:17:42.178Z,44.70
2018-09-18T14:20:10.384Z,44.70
2018-09-18T14:22:38.425Z,44.60
2018-09-18T14:25:06.486Z,44.70
2018-09-18T14:27:34.567Z,44.70
2018-09-18T14:30:02.670Z,44.40
2018-09-18T14:32:30.817Z,44.40
2018-09-18T14:34:58.959Z,44.50
2018-09-18T14:37:26.943Z,44.60
2018-09-18T14:39:55.058Z,44.80
2018-09-18T14:42:23.089Z,44.80
2018-09-18T14:44:51.151Z,44.90
2018-09-18T14:47:19.207Z,45.00
2018-09-18T14:49:47.283Z,44.90
2018-09-18T14:52:15.351Z,45.00
2018-09-18T14:54:43.427Z,44.80
2018-09-18T14:57:11.520Z,45.00
2018-09-18T14:59:39.585Z,45.00
2018-09-18T15:02:07.647Z,45.00
2018-09-18T15:04:35.706Z,45.00
2018-09-18T15:07:04.087Z,45.10
2018-09-18T15:09:32.155Z,45.00
2018-09-18T15:12:00.226Z,45.10
2018-09-18T15:14:28.333Z,45.10
2018-09-18T15:16:56.359Z,45.00
2018-09-18T15:19:24.423Z,44.90
2018-09-18T15:21:52.525Z,45.00
2018-09-18T15:24:20.567Z,45.00
2018-09-18T15:26:48.637Z,45.00
2018-09-18T15:29:16.703Z,45.00
2018-09-18T15:31:44.793Z,45.00
2018-09-18T15:34:12.868Z,45.00
2018-09-18T15:36:40.951Z,44.90
2018-09-18T15:39:09.265Z,44.90
2018-09-18T15:41:37.338Z,45.00
2018-09-18T15:44:05.422Z,45.00
2018-09-18T15:46:33.686Z,45.10
2018-09-18T15:49:01.754Z,45.00
2018-09-18T15:51:29.853Z,45.00
2018-09-18T15:53:57.882Z,45.00
2018-09-18T15:56:25.947Z,44.90
2018-09-18T15:58:54.002Z,45.00
2018-09-18T16:01:22.145Z,44.90
2018-09-18T16:03:50.187Z,44.80
2018-09-18T16:06:18.203Z,44.50
2018-09-18T16:08:46.279Z,44.60
2018-09-18T16:11:14.353Z,44.30
2018-09-18T16:13:42.423Z,44.20
2018-09-18T16:16:10.492Z,44.20
2018-09-18T16:18:38.554Z,44.10
2018-09-18T16:21:06.331Z,44.10
2018-09-18T16:26:02.914Z,44.00
2018-09-18T16:28:30.986Z,44.10
2018-09-18T16:30:59.086Z,43.90
2018-09-18T16:33:27.143Z,43.90
2018-09-18T16:35:55.218Z,44.00
2018-09-18T16:38:23.506Z,44.70
2018-09-18T16:40:51.574Z,44.10
2018-09-18T16:43:19.637Z,44.20
2018-09-18T16:45:47.720Z,44.20
2018-09-18T16:48:15.779Z,45.00
2018-09-18T16:50:43.843Z,44.40
2018-09-18T16:53:11.904Z,44.50
2018-09-18T16:55:39.968Z,44.50
2018-09-18T16:58:08.036Z,44.60
2018-09-18T17:00:36.358Z,44.70
2018-09-18T17:03:04.686Z,44.80
2018-09-18T17:05:32.754Z,44.90
2018-09-18T17:08:00.849Z,45.00
2018-09-18T17:10:29.435Z,45.10
2018-09-18T17:12:57.445Z,45.40
2018-09-18T17:15:25.522Z,45.90
2018-09-18T17:17:53.582Z,46.40
2018-09-18T17:20:22.215Z,46.60
2018-09-18T17:22:50.279Z,46.80
2018-09-18T17:25:18.339Z,47.20
2018-09-18T17:27:46.402Z,47.40
2018-09-18T17:30:14.475Z,47.80
2018-09-18T17:32:42.542Z,47.80
2018-09-18T17:35:10.597Z,47.90
2018-09-18T17:37:38.681Z,48.00
2018-09-18T17:40:07.036Z,48.10
2018-09-18T17:42:35.106Z,48.10
2018-09-18T17:45:04.483Z,48.30
2018-09-18T17:47:32.581Z,48.30
2018-09-18T17:50:00.661Z,48.30
2018-09-18T17:52:28.792Z,48.30
2018-09-18T17:54:56.855Z,48.60
2018-09-18T17:57:24.925Z,48.90
2018-09-18T17:59:52.979Z,49.80
2018-09-18T18:02:21.048Z,49.30
2018-09-18T18:04:49.133Z,49.50
2018-09-18T18:07:17.483Z,49.30
2018-09-18T18:09:45.556Z,49.30
2018-09-18T18:12:13.630Z,49.30
2018-09-18T18:14:41.714Z,49.40
2018-09-18T18:17:09.794Z,49.40
2018-09-18T18:19:37.870Z,49.40
2018-09-18T18:22:06.262Z,49.40
2018-09-18T18:24:34.336Z,49.50
2018-09-18T18:27:02.396Z,49.60
2018-09-18T18:29:30.511Z,49.50
2018-09-18T18:31:58.536Z,49.70
2018-09-18T18:34:26.619Z,49.70
2018-09-18T18:36:54.691Z,49.60
2018-09-18T18:39:22.734Z,50.30
2018-09-18T18:41:50.808Z,49.70
2018-09-18T18:44:18.871Z,49.70
2018-09-18T18:46:46.926Z,49.70
2018-09-18T18:49:14.994Z,49.70
2018-09-18T18:51:43.054Z,49.70
2018-09-18T18:54:11.166Z,49.70
2018-09-18T18:56:39.252Z,50.20
2018-09-18T18:59:07.306Z,49.90
2018-09-18T19:01:35.375Z,49.80
2018-09-18T19:04:03.475Z,49.70
2018-09-18T19:06:31.657Z,49.70
2018-09-18T19:08:59.614Z,49.80
2018-09-18T19:11:27.714Z,49.80
2018-09-18T19:13:55.800Z,49.70
2018-09-18T19:16:23.907Z,49.70
2018-09-18T19:18:52.052Z,49.70
2018-09-18T19:21:20.052Z,49.70
2018-09-18T19:23:48.114Z,49.70
2018-09-18T19:26:16.252Z,49.80
2018-09-18T19:28:44.251Z,49.80
2018-09-18T19:31:12.319Z,49.80
2018-09-18T19:33:40.393Z,49.90
2018-09-18T19:36:08.472Z,49.90
2018-09-18T19:38:36.546Z,49.90
2018-09-18T19:41:04.603Z,49.90
2018-09-18T19:43:32.674Z,49.90
2018-09-18T19:46:00.745Z,49.90
2018-09-18T19:48:28.816Z,49.90
2018-09-18T19:50:56.879Z,49.90
2018-09-18T19:53:24.954Z,49.70
2018-09-18T19:55:53.018Z,49.80
2018-09-18T19:58:21.310Z,49.80
2018-09-18T20:00:49.686Z,49.80
2018-09-18T20:03:17.824Z,49.80
2018-09-18T20:05:45.815Z,49.80
2018-09-18T20:08:13.898Z,49.80
2018-09-18T20:10:41.964Z,49.80
2018-09-18T20:13:10.023Z,49.80
2018-09-18T20:15:38.096Z,49.80
2018-09-18T20:18:06.160Z,49.80
2018-09-18T20:20:34.228Z,49.80
2018-09-18T20:23:02.291Z,49.80
2018-09-18T20:25:30.355Z,49.80
2018-09-18T20:27:58.888Z,49.80
2018-09-18T20:30:26.946Z,49.80
2018-09-18T20:32:55.030Z,49.80
2018-09-18T20:35:23.070Z,49.90
2018-09-18T20:37:51.119Z,49.90
2018-09-18T20:40:19.174Z,49.90
2018-09-18T20:42:47.459Z,49.90
2018-09-18T20:45:15.563Z,49.90
2018-09-18T20:47:43.562Z,50.00
2018-09-18T20:50:11.624Z,50.00
2018-09-18T20:52:39.678Z,50.00
2018-09-18T20:55:07.736Z,50.10
2018-09-18T20:57:35.787Z,50.10
2018-09-18T21:00:03.855Z,50.20
2018-09-18T21:02:31.903Z,50.20
2018-09-18T21:05:00.225Z,50.90
2018-09-18T21:07:28.271Z,50.10
2018-09-18T21:09:56.323Z,50.20
2018-09-18T21:12:24.371Z,50.20
2018-09-18T21:14:52.435Z,50.20
2018-09-18T21:17:20.486Z,50.20
2018-09-18T21:19:48.556Z,50.20
2018-09-18T21:22:16.594Z,50.30
2018-09-18T21:24:44.660Z,50.30
2018-09-18T21:27:12.707Z,50.30
2018-09-18T21:29:40.775Z,50.30
2018-09-18T21:32:09.078Z,50.30
2018-09-18T21:34:37.130Z,50.40
2018-09-18T21:37:05.344Z,50.40
2018-09-18T21:39:33.399Z,50.50
2018-09-18T21:42:01.458Z,50.50
2018-09-18T21:44:29.506Z,51.10
2018-09-18T21:46:57.697Z,50.50
2018-09-18T21:49:25.702Z,50.50
2018-09-18T21:51:53.787Z,50.40
2018-09-18T21:54:22.091Z,50.40
2018-09-18T21:56:50.308Z,50.50
2018-09-18T21:59:18.357Z,50.40
2018-09-18T22:01:46.451Z,50.50
2018-09-18T22:04:14.511Z,50.50
2018-09-18T22:06:42.575Z,50.50
2018-09-18T22:09:10.624Z,50.50
2018-09-18T22:11:38.684Z,50.50
2018-09-18T22:14:06.842Z,50.50
2018-09-18T22:16:34.895Z,50.60
2018-09-18T22:19:02.953Z,50.60
2018-09-18T22:21:31.012Z,50.60
2018-09-18T22:23:59.070Z,50.60
2018-09-18T22:26:27.154Z,50.60
2018-09-18T22:28:55.199Z,51.30
2018-09-18T22:31:23.262Z,50.60
2018-09-18T22:33:51.314Z,50.50
2018-09-18T22:36:19.387Z,50.50
2018-09-18T22:38:47.458Z,50.50
2018-09-18T22:41:15.509Z,50.50
2018-09-18T22:43:43.573Z,50.50
2018-09-18T22:46:11.623Z,50.50
2018-09-18T22:48:39.690Z,50.50
2018-09-18T22:51:07.767Z,50.50
2018-09-18T22:53:35.840Z,50.50
2018-09-18T22:56:03.921Z,50.50
2018-09-18T22:58:31.980Z,50.50
2018-09-18T23:01:00.039Z,50.60
2018-09-18T23:03:28.105Z,50.50
2018-09-18T23:05:56.155Z,50.50
2018-09-18T23:08:24.224Z,50.60
2018-09-18T23:10:52.287Z,50.50
2018-09-18T23:13:20.355Z,50.50
2018-09-18T23:15:48.459Z,50.50
2018-09-18T23:18:16.525Z,50.50
2018-09-18T23:20:44.578Z,50.50
2018-09-18T23:23:12.638Z,50.50
2018-09-18T23:25:40.690Z,50.50
2018-09-18T23:28:08.797Z,50.60
2018-09-18T23:30:36.860Z,50.60
2018-09-18T23:33:05.071Z,50.60
2018-09-18T23:35:33.130Z,50.50
2018-09-18T23:38:01.240Z,50.60
2018-09-18T23:40:29.254Z,50.50
2018-09-18T23:42:57.327Z,50.60
2018-09-18T23:45:25.394Z,50.60
2018-09-18T23:47:53.458Z,50.60
2018-09-18T23:50:21.510Z,50.50
2018-09-18T23:52:49.573Z,50.50
2018-09-18T23:55:17.640Z,50.50
2018-09-18T23:57:45.699Z,50.50
